Terminal Aerodrome Forecast
Issued by NWS

Home | Current Version | Previous Version | Text Only | Print | Product List | Glossary On
Versions: 1 2 3 4 5 6 7 8 9 10 11 12 13 14 15 16 17 18
000
FTUS46 KEKA 221700
TAFUKI
TAF
KUKI 221723Z 2218/2318 00000KT P6SM SKC
     FM222000 VRB06KT P6SM SKC
     FM222300 29008KT P6SM SKC
     FM230100 36005KT P6SM SKC
     FM230400 00000KT P6SM SKC=

USA.gov is the U.S. government's official web portal to all federal, state and local government web resources and services.